Terminal Aerodrome Forecast
Issued by NWS Sterling, VA

Home | Current Version | Previous Version | Text Only | Print | Product List | Glossary On
Versions: 1 2 3 4 5 6 7 8 9 10 11 12 13 14 15 16 17 18 19 20 21 22
000
FTUS41 KLWX 220800 AAA
TAFBWI
TAF AMD
KBWI 220853Z 2209/2312 00000KT P6SM SKC
     FM221400 20006KT P6SM FEW250
     FM222100 20008KT P6SM BKN090
     FM231000 21005KT P6SM SCT090=

USA.gov is the U.S. government's official web portal to all federal, state and local government web resources and services.